sensor_id;sensor_type;location;lat;lon;timestamp;P1;durP1;ratioP1;P2;durP2;ratioP2
55931;SDS011;41837;55.700;37.984;2023-08-21T00:01:26;19.65;;;14.93;;
55931;SDS011;41837;55.700;37.984;2023-08-21T00:03:53;16.30;;;13.80;;
55931;SDS011;41837;55.700;37.984;2023-08-21T00:06:19;14.00;;;11.02;;
55931;SDS011;41837;55.700;37.984;2023-08-21T00:08:45;20.58;;;12.63;;
55931;SDS011;41837;55.700;37.984;2023-08-21T00:11:12;17.20;;;13.10;;
55931;SDS011;41837;55.700;37.984;2023-08-21T00:13:38;18.27;;;13.73;;
55931;SDS011;41837;55.700;37.984;2023-08-21T00:16:04;17.05;;;12.75;;
55931;SDS011;41837;55.700;37.984;2023-08-21T00:18:33;19.55;;;13.20;;
55931;SDS011;41837;55.700;37.984;2023-08-21T00:20:59;14.65;;;12.68;;
55931;SDS011;41837;55.700;37.984;2023-08-21T00:23:26;15.63;;;12.05;;
55931;SDS011;41837;55.700;37.984;2023-08-21T00:25:52;15.27;;;10.70;;
55931;SDS011;41837;55.700;37.984;2023-08-21T00:28:18;14.00;;;10.52;;
55931;SDS011;41837;55.700;37.984;2023-08-21T00:30:44;17.10;;;11.48;;
55931;SDS011;41837;55.700;37.984;2023-08-21T00:33:10;14.88;;;11.05;;
55931;SDS011;41837;55.700;37.984;2023-08-21T00:35:37;14.00;;;9.73;;
55931;SDS011;41837;55.700;37.984;2023-08-21T00:38:03;13.75;;;10.48;;
55931;SDS011;41837;55.700;37.984;2023-08-21T00:40:33;11.65;;;8.18;;
55931;SDS011;41837;55.700;37.984;2023-08-21T00:43:00;9.77;;;7.53;;
55931;SDS011;41837;55.700;37.984;2023-08-21T00:45:26;9.13;;;7.45;;
55931;SDS011;41837;55.700;37.984;2023-08-21T00:47:53;11.80;;;8.25;;
55931;SDS011;41837;55.700;37.984;2023-08-21T00:50:19;13.30;;;8.27;;
55931;SDS011;41837;55.700;37.984;2023-08-21T00:52:46;13.52;;;8.02;;
55931;SDS011;41837;55.700;37.984;2023-08-21T00:55:13;12.25;;;9.40;;
55931;SDS011;41837;55.700;37.984;2023-08-21T00:57:40;10.10;;;7.60;;
55931;SDS011;41837;55.700;37.984;2023-08-21T01:00:07;10.70;;;7.88;;
55931;SDS011;41837;55.700;37.984;2023-08-21T01:02:38;12.15;;;7.93;;
55931;SDS011;41837;55.700;37.984;2023-08-21T01:05:05;11.40;;;8.60;;
55931;SDS011;41837;55.700;37.984;2023-08-21T01:07:36;11.48;;;7.65;;
55931;SDS011;41837;55.700;37.984;2023-08-21T01:10:22;10.18;;;7.85;;
55931;SDS011;41837;55.700;37.984;2023-08-21T01:13:11;10.38;;;8.00;;
55931;SDS011;41837;55.700;37.984;2023-08-21T01:15:59;10.95;;;7.70;;
55931;SDS011;41837;55.700;37.984;2023-08-21T01:18:26;13.68;;;9.75;;
55931;SDS011;41837;55.700;37.984;2023-08-21T01:20:54;12.85;;;8.55;;
55931;SDS011;41837;55.700;37.984;2023-08-21T01:23:31;11.57;;;8.70;;
55931;SDS011;41837;55.700;37.984;2023-08-21T01:26:01;11.13;;;8.00;;
55931;SDS011;41837;55.700;37.984;2023-08-21T01:28:30;12.52;;;8.93;;
55931;SDS011;41837;55.700;37.984;2023-08-21T01:31:00;12.75;;;9.57;;
55931;SDS011;41837;55.700;37.984;2023-08-21T01:33:44;15.88;;;10.15;;
55931;SDS011;41837;55.700;37.984;2023-08-21T01:36:13;19.95;;;12.77;;
55931;SDS011;41837;55.700;37.984;2023-08-21T01:38:40;15.75;;;12.73;;
55931;SDS011;41837;55.700;37.984;2023-08-21T01:41:07;18.98;;;14.10;;
55931;SDS011;41837;55.700;37.984;2023-08-21T01:43:34;19.33;;;14.25;;
55931;SDS011;41837;55.700;37.984;2023-08-21T01:46:00;19.63;;;14.38;;
55931;SDS011;41837;55.700;37.984;2023-08-21T01:48:28;17.65;;;11.98;;
55931;SDS011;41837;55.700;37.984;2023-08-21T01:50:54;13.95;;;11.30;;
55931;SDS011;41837;55.700;37.984;2023-08-21T01:53:21;20.52;;;11.60;;
55931;SDS011;41837;55.700;37.984;2023-08-21T01:55:47;15.13;;;11.60;;
55931;SDS011;41837;55.700;37.984;2023-08-21T01:58:15;13.30;;;9.57;;
55931;SDS011;41837;55.700;37.984;2023-08-21T02:00:41;13.02;;;8.85;;
55931;SDS011;41837;55.700;37.984;2023-08-21T02:03:07;13.10;;;9.55;;
55931;SDS011;41837;55.700;37.984;2023-08-21T02:05:38;14.57;;;10.63;;
55931;SDS011;41837;55.700;37.984;2023-08-21T02:08:06;16.70;;;10.48;;
55931;SDS011;41837;55.700;37.984;2023-08-21T02:10:35;13.77;;;10.07;;
55931;SDS011;41837;55.700;37.984;2023-08-21T02:13:02;16.77;;;9.45;;
55931;SDS011;41837;55.700;37.984;2023-08-21T02:15:28;17.75;;;10.27;;
55931;SDS011;41837;55.700;37.984;2023-08-21T02:17:55;14.70;;;9.48;;
55931;SDS011;41837;55.700;37.984;2023-08-21T02:20:21;17.38;;;9.35;;
55931;SDS011;41837;55.700;37.984;2023-08-21T02:22:47;13.27;;;8.77;;
55931;SDS011;41837;55.700;37.984;2023-08-21T02:25:13;14.95;;;8.48;;
55931;SDS011;41837;55.700;37.984;2023-08-21T02:27:40;12.00;;;9.38;;
55931;SDS011;41837;55.700;37.984;2023-08-21T02:30:07;18.02;;;9.73;;
55931;SDS011;41837;55.700;37.984;2023-08-21T02:32:33;13.93;;;8.88;;
55931;SDS011;41837;55.700;37.984;2023-08-21T02:35:00;12.40;;;8.43;;
55931;SDS011;41837;55.700;37.984;2023-08-21T02:37:27;15.93;;;8.07;;
55931;SDS011;41837;55.700;37.984;2023-08-21T02:39:54;14.43;;;8.70;;
55931;SDS011;41837;55.700;37.984;2023-08-21T02:42:21;13.85;;;8.57;;
55931;SDS011;41837;55.700;37.984;2023-08-21T02:44:47;12.48;;;8.63;;
55931;SDS011;41837;55.700;37.984;2023-08-21T02:47:13;15.93;;;7.80;;
55931;SDS011;41837;55.700;37.984;2023-08-21T02:49:40;13.27;;;7.95;;
55931;SDS011;41837;55.700;37.984;2023-08-21T02:52:06;17.88;;;8.05;;
55931;SDS011;41837;55.700;37.984;2023-08-21T02:54:32;13.73;;;8.55;;
55931;SDS011;41837;55.700;37.984;2023-08-21T02:56:59;12.48;;;8.20;;
55931;SDS011;41837;55.700;37.984;2023-08-21T02:59:25;11.32;;;7.68;;
55931;SDS011;41837;55.700;37.984;2023-08-21T03:01:52;11.95;;;7.47;;
55931;SDS011;41837;55.700;37.984;2023-08-21T03:04:18;12.50;;;8.18;;
55931;SDS011;41837;55.700;37.984;2023-08-21T03:06:44;10.98;;;8.07;;
55931;SDS011;41837;55.700;37.984;2023-08-21T03:09:10;10.32;;;7.20;;
55931;SDS011;41837;55.700;37.984;2023-08-21T03:11:36;13.98;;;8.32;;
55931;SDS011;41837;55.700;37.984;2023-08-21T03:14:02;15.00;;;8.30;;
55931;SDS011;41837;55.700;37.984;2023-08-21T03:16:29;13.68;;;8.73;;
55931;SDS011;41837;55.700;37.984;2023-08-21T03:18:56;14.95;;;8.65;;
55931;SDS011;41837;55.700;37.984;2023-08-21T03:21:27;14.82;;;8.02;;
55931;SDS011;41837;55.700;37.984;2023-08-21T03:23:57;10.73;;;7.40;;
55931;SDS011;41837;55.700;37.984;2023-08-21T03:26:25;10.30;;;7.22;;
55931;SDS011;41837;55.700;37.984;2023-08-21T03:28:54;14.57;;;9.73;;
55931;SDS011;41837;55.700;37.984;2023-08-21T03:31:20;10.25;;;8.15;;
55931;SDS011;41837;55.700;37.984;2023-08-21T03:33:46;12.30;;;8.90;;
55931;SDS011;41837;55.700;37.984;2023-08-21T03:36:13;13.18;;;9.40;;
55931;SDS011;41837;55.700;37.984;2023-08-21T03:38:40;16.70;;;10.00;;
55931;SDS011;41837;55.700;37.984;2023-08-21T03:41:07;12.80;;;8.68;;
55931;SDS011;41837;55.700;37.984;2023-08-21T03:43:34;11.32;;;7.95;;
55931;SDS011;41837;55.700;37.984;2023-08-21T03:46:02;11.63;;;7.22;;
55931;SDS011;41837;55.700;37.984;2023-08-21T03:48:29;11.75;;;7.38;;
55931;SDS011;41837;55.700;37.984;2023-08-21T03:50:55;10.98;;;7.40;;
55931;SDS011;41837;55.700;37.984;2023-08-21T03:53:22;9.30;;;6.85;;
55931;SDS011;41837;55.700;37.984;2023-08-21T03:55:48;9.85;;;6.50;;
55931;SDS011;41837;55.700;37.984;2023-08-21T03:58:15;8.43;;;5.95;;
55931;SDS011;41837;55.700;37.984;2023-08-21T04:00:41;10.68;;;5.68;;
55931;SDS011;41837;55.700;37.984;2023-08-21T04:03:07;7.38;;;5.72;;
55931;SDS011;41837;55.700;37.984;2023-08-21T04:05:34;8.95;;;5.45;;
55931;SDS011;41837;55.700;37.984;2023-08-21T04:08:01;7.35;;;4.93;;
55931;SDS011;41837;55.700;37.984;2023-08-21T04:10:27;6.80;;;4.35;;
55931;SDS011;41837;55.700;37.984;2023-08-21T04:12:55;7.13;;;4.15;;
55931;SDS011;41837;55.700;37.984;2023-08-21T04:15:21;5.93;;;3.25;;
55931;SDS011;41837;55.700;37.984;2023-08-21T04:17:48;7.40;;;3.00;;
55931;SDS011;41837;55.700;37.984;2023-08-21T04:20:14;4.03;;;2.60;;
55931;SDS011;41837;55.700;37.984;2023-08-21T04:22:50;4.68;;;2.45;;
55931;SDS011;41837;55.700;37.984;2023-08-21T04:25:16;6.22;;;2.45;;
55931;SDS011;41837;55.700;37.984;2023-08-21T04:27:43;4.75;;;2.45;;
55931;SDS011;41837;55.700;37.984;2023-08-21T04:30:10;4.68;;;2.38;;
55931;SDS011;41837;55.700;37.984;2023-08-21T04:32:36;3.38;;;2.08;;
55931;SDS011;41837;55.700;37.984;2023-08-21T04:35:03;3.28;;;2.08;;
55931;SDS011;41837;55.700;37.984;2023-08-21T04:37:31;6.25;;;2.40;;
55931;SDS011;41837;55.700;37.984;2023-08-21T04:39:58;5.55;;;2.20;;
55931;SDS011;41837;55.700;37.984;2023-08-21T04:42:25;3.08;;;2.22;;
55931;SDS011;41837;55.700;37.984;2023-08-21T04:44:52;4.20;;;2.33;;
55931;SDS011;41837;55.700;37.984;2023-08-21T04:47:26;3.13;;;2.10;;
55931;SDS011;41837;55.700;37.984;2023-08-21T04:50:05;3.95;;;2.33;;
55931;SDS011;41837;55.700;37.984;2023-08-21T04:52:32;6.05;;;2.25;;
55931;SDS011;41837;55.700;37.984;2023-08-21T04:54:59;8.30;;;2.50;;
55931;SDS011;41837;55.700;37.984;2023-08-21T04:57:33;6.10;;;2.45;;
55931;SDS011;41837;55.700;37.984;2023-08-21T05:00:12;4.30;;;2.28;;
55931;SDS011;41837;55.700;37.984;2023-08-21T05:02:41;4.90;;;2.20;;
55931;SDS011;41837;55.700;37.984;2023-08-21T05:05:08;4.05;;;2.20;;
55931;SDS011;41837;55.700;37.984;2023-08-21T05:07:34;4.50;;;2.40;;
55931;SDS011;41837;55.700;37.984;2023-08-21T05:10:01;4.18;;;2.35;;
55931;SDS011;41837;55.700;37.984;2023-08-21T05:12:32;6.65;;;2.22;;
55931;SDS011;41837;55.700;37.984;2023-08-21T05:14:59;5.07;;;2.20;;
55931;SDS011;41837;55.700;37.984;2023-08-21T05:17:26;4.72;;;2.08;;
55931;SDS011;41837;55.700;37.984;2023-08-21T05:19:52;6.05;;;2.30;;
55931;SDS011;41837;55.700;37.984;2023-08-21T05:22:19;2.60;;;1.95;;
55931;SDS011;41837;55.700;37.984;2023-08-21T05:24:46;3.80;;;1.80;;
55931;SDS011;41837;55.700;37.984;2023-08-21T05:27:13;3.50;;;1.73;;
55931;SDS011;41837;55.700;37.984;2023-08-21T05:29:39;6.20;;;1.98;;
55931;SDS011;41837;55.700;37.984;2023-08-21T05:32:06;4.55;;;1.80;;
55931;SDS011;41837;55.700;37.984;2023-08-21T05:34:34;4.50;;;1.95;;
55931;SDS011;41837;55.700;37.984;2023-08-21T05:37:01;5.88;;;2.17;;
55931;SDS011;41837;55.700;37.984;2023-08-21T05:39:30;4.15;;;2.13;;
55931;SDS011;41837;55.700;37.984;2023-08-21T05:41:57;4.90;;;1.77;;
55931;SDS011;41837;55.700;37.984;2023-08-21T05:44:24;2.85;;;1.50;;
55931;SDS011;41837;55.700;37.984;2023-08-21T05:46:51;3.45;;;1.52;;
55931;SDS011;41837;55.700;37.984;2023-08-21T05:49:17;4.93;;;1.50;;
55931;SDS011;41837;55.700;37.984;2023-08-21T05:51:44;3.33;;;1.17;;
55931;SDS011;41837;55.700;37.984;2023-08-21T05:54:11;3.45;;;1.40;;
55931;SDS011;41837;55.700;37.984;2023-08-21T05:56:39;2.72;;;1.80;;
55931;SDS011;41837;55.700;37.984;2023-08-21T05:59:05;6.07;;;1.50;;
55931;SDS011;41837;55.700;37.984;2023-08-21T06:01:32;2.53;;;1.77;;
55931;SDS011;41837;55.700;37.984;2023-08-21T06:03:58;3.55;;;1.60;;
55931;SDS011;41837;55.700;37.984;2023-08-21T06:06:41;4.60;;;1.60;;
55931;SDS011;41837;55.700;37.984;2023-08-21T06:09:08;4.82;;;1.42;;
55931;SDS011;41837;55.700;37.984;2023-08-21T06:11:34;6.65;;;1.60;;
55931;SDS011;41837;55.700;37.984;2023-08-21T06:14:02;3.15;;;1.73;;
55931;SDS011;41837;55.700;37.984;2023-08-21T06:16:29;3.70;;;1.55;;
55931;SDS011;41837;55.700;37.984;2023-08-21T06:18:55;3.03;;;1.42;;
55931;SDS011;41837;55.700;37.984;2023-08-21T06:21:21;2.88;;;1.38;;
55931;SDS011;41837;55.700;37.984;2023-08-21T06:23:47;2.78;;;1.30;;
55931;SDS011;41837;55.700;37.984;2023-08-21T06:26:13;2.55;;;1.50;;
55931;SDS011;41837;55.700;37.984;2023-08-21T06:28:40;2.17;;;1.45;;
55931;SDS011;41837;55.700;37.984;2023-08-21T06:31:08;4.63;;;1.63;;
55931;SDS011;41837;55.700;37.984;2023-08-21T06:33:34;4.75;;;2.10;;
55931;SDS011;41837;55.700;37.984;2023-08-21T06:36:01;5.18;;;1.60;;
55931;SDS011;41837;55.700;37.984;2023-08-21T06:38:27;3.05;;;1.35;;
55931;SDS011;41837;55.700;37.984;2023-08-21T06:40:53;3.40;;;1.42;;
55931;SDS011;41837;55.700;37.984;2023-08-21T06:43:20;6.60;;;1.90;;
55931;SDS011;41837;55.700;37.984;2023-08-21T06:45:49;2.90;;;1.30;;
55931;SDS011;41837;55.700;37.984;2023-08-21T06:48:16;5.25;;;1.52;;
55931;SDS011;41837;55.700;37.984;2023-08-21T06:50:47;2.80;;;1.30;;
55931;SDS011;41837;55.700;37.984;2023-08-21T06:53:26;3.00;;;1.40;;
55931;SDS011;41837;55.700;37.984;2023-08-21T06:55:52;3.78;;;1.20;;
55931;SDS011;41837;55.700;37.984;2023-08-21T06:58:19;4.15;;;1.70;;
55931;SDS011;41837;55.700;37.984;2023-08-21T07:00:45;4.25;;;1.75;;
55931;SDS011;41837;55.700;37.984;2023-08-21T07:03:12;5.80;;;1.80;;
55931;SDS011;41837;55.700;37.984;2023-08-21T07:05:40;3.28;;;1.60;;
55931;SDS011;41837;55.700;37.984;2023-08-21T07:08:06;3.33;;;1.42;;
55931;SDS011;41837;55.700;37.984;2023-08-21T07:10:36;4.53;;;1.42;;
55931;SDS011;41837;55.700;37.984;2023-08-21T07:13:12;4.03;;;1.58;;
55931;SDS011;41837;55.700;37.984;2023-08-21T07:15:39;5.05;;;1.40;;
55931;SDS011;41837;55.700;37.984;2023-08-21T07:18:05;5.95;;;1.50;;
55931;SDS011;41837;55.700;37.984;2023-08-21T07:20:32;2.08;;;1.40;;
55931;SDS011;41837;55.700;37.984;2023-08-21T07:22:58;4.32;;;1.40;;
55931;SDS011;41837;55.700;37.984;2023-08-21T07:25:24;3.60;;;1.30;;
55931;SDS011;41837;55.700;37.984;2023-08-21T07:27:51;2.22;;;1.45;;
55931;SDS011;41837;55.700;37.984;2023-08-21T07:30:21;3.80;;;1.38;;
55931;SDS011;41837;55.700;37.984;2023-08-21T07:32:57;2.95;;;1.20;;
55931;SDS011;41837;55.700;37.984;2023-08-21T07:35:23;3.40;;;1.27;;
55931;SDS011;41837;55.700;37.984;2023-08-21T07:37:49;3.00;;;1.70;;
55931;SDS011;41837;55.700;37.984;2023-08-21T07:40:15;3.25;;;1.20;;
55931;SDS011;41837;55.700;37.984;2023-08-21T07:42:42;3.40;;;1.35;;
55931;SDS011;41837;55.700;37.984;2023-08-21T07:45:09;2.50;;;1.48;;
55931;SDS011;41837;55.700;37.984;2023-08-21T07:50:21;7.88;;;1.50;;
55931;SDS011;41837;55.700;37.984;2023-08-21T07:52:48;3.80;;;1.48;;
55931;SDS011;41837;55.700;37.984;2023-08-21T07:55:14;2.65;;;1.30;;
55931;SDS011;41837;55.700;37.984;2023-08-21T07:57:41;3.28;;;1.35;;
55931;SDS011;41837;55.700;37.984;2023-08-21T08:00:07;3.88;;;1.60;;
55931;SDS011;41837;55.700;37.984;2023-08-21T08:02:39;2.53;;;1.17;;
55931;SDS011;41837;55.700;37.984;2023-08-21T08:05:06;3.25;;;1.13;;
55931;SDS011;41837;55.700;37.984;2023-08-21T08:07:33;3.50;;;1.55;;
55931;SDS011;41837;55.700;37.984;2023-08-21T08:10:17;3.80;;;1.50;;
55931;SDS011;41837;55.700;37.984;2023-08-21T08:12:44;3.35;;;1.40;;
55931;SDS011;41837;55.700;37.984;2023-08-21T08:15:10;3.80;;;1.63;;
55931;SDS011;41837;55.700;37.984;2023-08-21T08:17:37;3.55;;;1.27;;
55931;SDS011;41837;55.700;37.984;2023-08-21T08:20:03;2.72;;;1.58;;
55931;SDS011;41837;55.700;37.984;2023-08-21T08:22:32;2.22;;;1.40;;
55931;SDS011;41837;55.700;37.984;2023-08-21T08:24:59;3.30;;;1.33;;
55931;SDS011;41837;55.700;37.984;2023-08-21T08:27:25;2.30;;;1.40;;
55931;SDS011;41837;55.700;37.984;2023-08-21T08:29:51;3.70;;;1.52;;
55931;SDS011;41837;55.700;37.984;2023-08-21T08:32:18;3.25;;;1.35;;
55931;SDS011;41837;55.700;37.984;2023-08-21T08:34:45;2.95;;;1.33;;
55931;SDS011;41837;55.700;37.984;2023-08-21T08:37:12;4.70;;;1.60;;
55931;SDS011;41837;55.700;37.984;2023-08-21T08:39:39;3.85;;;1.45;;
55931;SDS011;41837;55.700;37.984;2023-08-21T08:42:06;3.40;;;1.38;;
55931;SDS011;41837;55.700;37.984;2023-08-21T08:44:37;4.75;;;1.60;;
55931;SDS011;41837;55.700;37.984;2023-08-21T08:47:11;2.28;;;1.30;;
55931;SDS011;41837;55.700;37.984;2023-08-21T08:49:37;3.03;;;1.48;;
55931;SDS011;41837;55.700;37.984;2023-08-21T08:52:04;5.72;;;1.80;;
55931;SDS011;41837;55.700;37.984;2023-08-21T08:54:31;6.53;;;2.00;;
55931;SDS011;41837;55.700;37.984;2023-08-21T08:57:01;2.00;;;1.20;;
55931;SDS011;41837;55.700;37.984;2023-08-21T08:59:31;3.92;;;1.17;;
55931;SDS011;41837;55.700;37.984;2023-08-21T09:01:59;6.15;;;1.55;;
55931;SDS011;41837;55.700;37.984;2023-08-21T09:04:26;4.35;;;1.30;;
55931;SDS011;41837;55.700;37.984;2023-08-21T09:07:05;2.65;;;1.35;;
55931;SDS011;41837;55.700;37.984;2023-08-21T09:09:44;3.60;;;1.50;;
55931;SDS011;41837;55.700;37.984;2023-08-21T09:12:13;3.45;;;1.52;;
55931;SDS011;41837;55.700;37.984;2023-08-21T09:14:40;3.40;;;1.40;;
55931;SDS011;41837;55.700;37.984;2023-08-21T09:17:07;5.93;;;1.50;;
55931;SDS011;41837;55.700;37.984;2023-08-21T09:19:34;5.28;;;1.80;;
55931;SDS011;41837;55.700;37.984;2023-08-21T09:22:07;3.13;;;1.65;;
55931;SDS011;41837;55.700;37.984;2023-08-21T09:24:38;5.22;;;1.60;;
55931;SDS011;41837;55.700;37.984;2023-08-21T09:27:13;2.35;;;1.35;;
55931;SDS011;41837;55.700;37.984;2023-08-21T09:29:42;3.72;;;1.42;;
55931;SDS011;41837;55.700;37.984;2023-08-21T09:32:09;4.70;;;1.08;;
55931;SDS011;41837;55.700;37.984;2023-08-21T09:34:38;2.55;;;1.35;;
55931;SDS011;41837;55.700;37.984;2023-08-21T09:37:05;2.50;;;1.20;;
55931;SDS011;41837;55.700;37.984;2023-08-21T09:39:36;4.32;;;1.40;;
55931;SDS011;41837;55.700;37.984;2023-08-21T09:42:06;2.47;;;1.10;;
55931;SDS011;41837;55.700;37.984;2023-08-21T09:44:40;4.25;;;1.30;;
55931;SDS011;41837;55.700;37.984;2023-08-21T09:47:10;3.17;;;1.45;;
55931;SDS011;41837;55.700;37.984;2023-08-21T09:49:38;2.58;;;1.20;;
55931;SDS011;41837;55.700;37.984;2023-08-21T09:52:06;5.40;;;1.45;;
55931;SDS011;41837;55.700;37.984;2023-08-21T09:54:55;2.70;;;1.45;;
55931;SDS011;41837;55.700;37.984;2023-08-21T09:57:23;5.22;;;1.00;;
55931;SDS011;41837;55.700;37.984;2023-08-21T09:59:53;5.90;;;1.30;;
55931;SDS011;41837;55.700;37.984;2023-08-21T10:02:22;4.38;;;1.30;;
55931;SDS011;41837;55.700;37.984;2023-08-21T10:04:52;3.08;;;1.20;;
55931;SDS011;41837;55.700;37.984;2023-08-21T10:07:20;2.75;;;1.08;;
55931;SDS011;41837;55.700;37.984;2023-08-21T10:09:51;4.22;;;1.63;;
55931;SDS011;41837;55.700;37.984;2023-08-21T10:12:19;2.08;;;1.25;;
55931;SDS011;41837;55.700;37.984;2023-08-21T10:14:48;2.33;;;1.35;;
55931;SDS011;41837;55.700;37.984;2023-08-21T10:17:15;2.75;;;1.10;;
55931;SDS011;41837;55.700;37.984;2023-08-21T10:19:41;3.42;;;1.33;;
55931;SDS011;41837;55.700;37.984;2023-08-21T10:22:07;2.78;;;1.30;;
55931;SDS011;41837;55.700;37.984;2023-08-21T10:24:35;3.05;;;1.10;;
55931;SDS011;41837;55.700;37.984;2023-08-21T10:27:06;2.45;;;1.25;;
55931;SDS011;41837;55.700;37.984;2023-08-21T10:29:34;2.45;;;1.30;;
55931;SDS011;41837;55.700;37.984;2023-08-21T10:32:02;6.32;;;1.27;;
55931;SDS011;41837;55.700;37.984;2023-08-21T10:34:34;2.60;;;1.20;;
55931;SDS011;41837;55.700;37.984;2023-08-21T10:37:08;2.45;;;1.15;;
55931;SDS011;41837;55.700;37.984;2023-08-21T10:39:39;4.35;;;1.30;;
55931;SDS011;41837;55.700;37.984;2023-08-21T10:42:19;12.70;;;1.50;;
55931;SDS011;41837;55.700;37.984;2023-08-21T10:45:10;2.40;;;1.10;;
55931;SDS011;41837;55.700;37.984;2023-08-21T10:47:37;3.33;;;1.20;;
55931;SDS011;41837;55.700;37.984;2023-08-21T10:50:04;3.55;;;1.33;;
55931;SDS011;41837;55.700;37.984;2023-08-21T10:52:37;4.03;;;1.10;;
55931;SDS011;41837;55.700;37.984;2023-08-21T10:55:06;1.80;;;1.30;;
55931;SDS011;41837;55.700;37.984;2023-08-21T10:57:33;4.47;;;1.20;;
55931;SDS011;41837;55.700;37.984;2023-08-21T11:00:07;3.15;;;1.33;;
55931;SDS011;41837;55.700;37.984;2023-08-21T11:02:40;3.47;;;1.20;;
55931;SDS011;41837;55.700;37.984;2023-08-21T11:05:09;1.98;;;1.10;;
55931;SDS011;41837;55.700;37.984;2023-08-21T11:07:37;5.03;;;1.50;;
55931;SDS011;41837;55.700;37.984;2023-08-21T11:10:06;9.20;;;1.50;;
55931;SDS011;41837;55.700;37.984;2023-08-21T11:12:51;4.70;;;1.20;;
55931;SDS011;41837;55.700;37.984;2023-08-21T11:15:19;2.47;;;1.30;;
55931;SDS011;41837;55.700;37.984;2023-08-21T11:17:55;7.57;;;1.85;;
55931;SDS011;41837;55.700;37.984;2023-08-21T11:20:33;4.95;;;1.63;;
55931;SDS011;41837;55.700;37.984;2023-08-21T11:23:02;2.30;;;1.40;;
55931;SDS011;41837;55.700;37.984;2023-08-21T11:25:39;2.75;;;1.23;;
55931;SDS011;41837;55.700;37.984;2023-08-21T11:28:07;3.60;;;1.20;;
55931;SDS011;41837;55.700;37.984;2023-08-21T11:30:34;3.58;;;1.30;;
55931;SDS011;41837;55.700;37.984;2023-08-21T11:35:37;4.90;;;1.40;;
55931;SDS011;41837;55.700;37.984;2023-08-21T11:38:04;3.22;;;1.42;;
55931;SDS011;41837;55.700;37.984;2023-08-21T11:40:34;3.90;;;1.20;;
55931;SDS011;41837;55.700;37.984;2023-08-21T11:43:01;2.28;;;1.13;;
55931;SDS011;41837;55.700;37.984;2023-08-21T11:45:28;2.10;;;1.10;;
55931;SDS011;41837;55.700;37.984;2023-08-21T11:47:57;3.28;;;1.30;;
55931;SDS011;41837;55.700;37.984;2023-08-21T11:50:24;3.92;;;1.17;;
55931;SDS011;41837;55.700;37.984;2023-08-21T11:52:53;2.45;;;1.23;;
55931;SDS011;41837;55.700;37.984;2023-08-21T11:55:22;2.10;;;1.13;;
55931;SDS011;41837;55.700;37.984;2023-08-21T11:57:48;2.30;;;1.20;;
55931;SDS011;41837;55.700;37.984;2023-08-21T12:00:17;2.28;;;1.10;;
55931;SDS011;41837;55.700;37.984;2023-08-21T12:02:57;2.40;;;0.93;;
55931;SDS011;41837;55.700;37.984;2023-08-21T12:05:26;3.20;;;1.15;;
55931;SDS011;41837;55.700;37.984;2023-08-21T12:07:54;1.80;;;1.20;;
55931;SDS011;41837;55.700;37.984;2023-08-21T12:10:25;2.78;;;1.42;;
55931;SDS011;41837;55.700;37.984;2023-08-21T12:12:53;2.47;;;1.13;;
55931;SDS011;41837;55.700;37.984;2023-08-21T12:15:20;2.38;;;1.40;;
55931;SDS011;41837;55.700;37.984;2023-08-21T12:17:47;2.55;;;0.93;;
55931;SDS011;41837;55.700;37.984;2023-08-21T12:20:22;24.05;;;4.75;;
55931;SDS011;41837;55.700;37.984;2023-08-21T12:22:49;3.75;;;1.40;;
55931;SDS011;41837;55.700;37.984;2023-08-21T12:25:15;3.78;;;0.90;;
55931;SDS011;41837;55.700;37.984;2023-08-21T12:27:42;4.07;;;1.05;;
55931;SDS011;41837;55.700;37.984;2023-08-21T12:30:08;2.15;;;1.13;;
55931;SDS011;41837;55.700;37.984;2023-08-21T12:32:36;6.82;;;1.83;;
55931;SDS011;41837;55.700;37.984;2023-08-21T12:35:02;4.15;;;1.45;;
55931;SDS011;41837;55.700;37.984;2023-08-21T12:37:30;7.53;;;3.90;;
55931;SDS011;41837;55.700;37.984;2023-08-21T12:39:57;3.30;;;1.25;;
55931;SDS011;41837;55.700;37.984;2023-08-21T12:42:24;4.72;;;1.30;;
55931;SDS011;41837;55.700;37.984;2023-08-21T12:44:50;6.60;;;1.88;;
55931;SDS011;41837;55.700;37.984;2023-08-21T12:47:16;5.15;;;1.00;;
55931;SDS011;41837;55.700;37.984;2023-08-21T12:49:43;2.67;;;0.98;;
55931;SDS011;41837;55.700;37.984;2023-08-21T12:52:10;2.72;;;1.20;;
55931;SDS011;41837;55.700;37.984;2023-08-21T12:54:40;6.88;;;2.10;;
55931;SDS011;41837;55.700;37.984;2023-08-21T12:57:07;4.13;;;1.60;;
55931;SDS011;41837;55.700;37.984;2023-08-21T12:59:36;3.00;;;1.20;;
55931;SDS011;41837;55.700;37.984;2023-08-21T13:02:03;2.85;;;1.38;;
55931;SDS011;41837;55.700;37.984;2023-08-21T13:04:29;2.78;;;0.82;;
55931;SDS011;41837;55.700;37.984;2023-08-21T13:06:56;3.80;;;1.08;;
55931;SDS011;41837;55.700;37.984;2023-08-21T13:09:23;1.95;;;0.70;;
55931;SDS011;41837;55.700;37.984;2023-08-21T13:11:53;4.25;;;1.35;;
55931;SDS011;41837;55.700;37.984;2023-08-21T13:14:20;3.25;;;1.10;;
55931;SDS011;41837;55.700;37.984;2023-08-21T13:16:47;2.95;;;1.23;;
55931;SDS011;41837;55.700;37.984;2023-08-21T13:19:14;8.68;;;4.85;;
55931;SDS011;41837;55.700;37.984;2023-08-21T13:21:41;5.25;;;1.75;;
55931;SDS011;41837;55.700;37.984;2023-08-21T13:24:08;2.45;;;1.20;;
55931;SDS011;41837;55.700;37.984;2023-08-21T13:26:44;2.58;;;1.00;;
55931;SDS011;41837;55.700;37.984;2023-08-21T13:29:11;2.47;;;1.08;;
55931;SDS011;41837;55.700;37.984;2023-08-21T13:31:38;2.50;;;1.00;;
55931;SDS011;41837;55.700;37.984;2023-08-21T13:34:04;2.42;;;0.80;;
55931;SDS011;41837;55.700;37.984;2023-08-21T13:36:31;1.98;;;0.93;;
55931;SDS011;41837;55.700;37.984;2023-08-21T13:38:58;1.67;;;0.90;;
55931;SDS011;41837;55.700;37.984;2023-08-21T13:41:24;2.58;;;0.98;;
55931;SDS011;41837;55.700;37.984;2023-08-21T13:43:51;2.28;;;1.10;;
55931;SDS011;41837;55.700;37.984;2023-08-21T13:46:19;6.75;;;1.10;;
55931;SDS011;41837;55.700;37.984;2023-08-21T13:48:46;1.35;;;1.10;;
55931;SDS011;41837;55.700;37.984;2023-08-21T13:51:12;3.35;;;1.10;;
55931;SDS011;41837;55.700;37.984;2023-08-21T13:53:38;2.13;;;1.13;;
55931;SDS011;41837;55.700;37.984;2023-08-21T13:56:04;3.13;;;1.00;;
55931;SDS011;41837;55.700;37.984;2023-08-21T13:58:30;1.98;;;0.98;;
55931;SDS011;41837;55.700;37.984;2023-08-21T14:00:57;3.00;;;1.20;;
55931;SDS011;41837;55.700;37.984;2023-08-21T14:03:23;2.00;;;1.00;;
55931;SDS011;41837;55.700;37.984;2023-08-21T14:05:50;2.47;;;1.10;;
55931;SDS011;41837;55.700;37.984;2023-08-21T14:08:16;1.70;;;0.80;;
55931;SDS011;41837;55.700;37.984;2023-08-21T14:10:43;2.45;;;1.27;;
55931;SDS011;41837;55.700;37.984;2023-08-21T14:13:10;2.25;;;1.08;;
55931;SDS011;41837;55.700;37.984;2023-08-21T14:15:37;2.55;;;1.05;;
55931;SDS011;41837;55.700;37.984;2023-08-21T14:18:04;3.22;;;1.25;;
55931;SDS011;41837;55.700;37.984;2023-08-21T14:20:30;1.20;;;0.93;;
55931;SDS011;41837;55.700;37.984;2023-08-21T14:22:57;1.70;;;1.02;;
55931;SDS011;41837;55.700;37.984;2023-08-21T14:25:23;2.17;;;0.80;;
55931;SDS011;41837;55.700;37.984;2023-08-21T14:28:02;1.83;;;0.90;;
55931;SDS011;41837;55.700;37.984;2023-08-21T14:30:29;4.10;;;1.10;;
55931;SDS011;41837;55.700;37.984;2023-08-21T14:32:56;2.20;;;1.20;;
55931;SDS011;41837;55.700;37.984;2023-08-21T14:35:23;2.75;;;0.95;;
55931;SDS011;41837;55.700;37.984;2023-08-21T14:37:49;1.60;;;1.10;;
55931;SDS011;41837;55.700;37.984;2023-08-21T14:40:16;2.10;;;1.10;;
55931;SDS011;41837;55.700;37.984;2023-08-21T14:42:42;2.78;;;1.13;;